createdAt,value
2018-04-11T00:01:54.938Z,23.87
2018-04-11T00:04:23.232Z,25.33
2018-04-11T00:06:51.909Z,23.57
2018-04-11T00:09:20.385Z,24.63
2018-04-11T00:11:50.112Z,25.40
2018-04-11T00:14:19.295Z,25.60
2018-04-11T00:16:48.497Z,23.40
2018-04-11T00:19:16.348Z,26.23
2018-04-11T00:21:44.527Z,24.30
2018-04-11T00:24:12.788Z,24.23
2018-04-11T00:26:41.162Z,25.17
2018-04-11T00:29:09.047Z,24.60
2018-04-11T00:31:37.317Z,24.50
2018-04-11T00:34:06.401Z,24.63
2018-04-11T00:36:34.386Z,23.77
2018-04-11T00:39:02.552Z,24.47
2018-04-11T00:41:30.628Z,26.00
2018-04-11T00:43:58.918Z,25.83
2018-04-11T00:46:27.938Z,24.80
2018-04-11T00:48:57.099Z,25.07
2018-04-11T00:51:26.200Z,25.90
2018-04-11T00:53:55.086Z,26.33
2018-04-11T00:56:23.261Z,24.50
2018-04-11T00:58:51.531Z,25.43
2018-04-11T01:01:20.095Z,24.37
2018-04-11T01:03:48.277Z,23.73
2018-04-11T01:06:16.843Z,24.27
2018-04-11T01:08:45.056Z,23.53
2018-04-11T01:11:13.720Z,25.30
2018-04-11T01:13:42.111Z,23.53
2018-04-11T01:16:09.960Z,24.90
2018-04-11T01:18:38.214Z,24.77
2018-04-11T01:21:06.529Z,24.20
2018-04-11T01:23:35.383Z,23.13
2018-04-11T01:26:03.983Z,22.50
2018-04-11T01:28:31.857Z,24.00
2018-04-11T01:31:00.251Z,24.43
2018-04-11T01:33:29.225Z,22.50
2018-04-11T01:35:57.420Z,22.23
2018-04-11T01:38:26.717Z,23.17
2018-04-11T01:40:55.767Z,23.50
2018-04-11T01:43:23.960Z,23.67
2018-04-11T01:45:52.137Z,23.00
2018-04-11T01:48:20.653Z,24.57
2018-04-11T01:50:49.505Z,23.17
2018-04-11T01:53:17.889Z,24.23
2018-04-11T01:55:45.943Z,24.87
2018-04-11T01:58:14.232Z,24.33
2018-04-11T02:00:42.712Z,25.43
2018-04-11T02:03:10.892Z,25.40
2018-04-11T02:05:39.907Z,24.20
2018-04-11T02:08:08.877Z,26.77
2018-04-11T02:10:36.840Z,23.80
2018-04-11T02:13:04.812Z,26.37
2018-04-11T02:15:32.884Z,25.33
2018-04-11T02:18:01.163Z,26.57
2018-04-11T02:20:29.710Z,25.83
2018-04-11T02:22:58.008Z,27.20
2018-04-11T02:25:26.186Z,27.40
2018-04-11T02:27:54.054Z,27.30
2018-04-11T02:30:22.553Z,26.83
2018-04-11T02:32:51.493Z,26.17
2018-04-11T02:35:19.993Z,27.77
2018-04-11T02:37:48.160Z,26.80
2018-04-11T02:40:16.665Z,28.67
2018-04-11T02:42:44.839Z,27.73
2018-04-11T02:45:12.812Z,27.27
2018-04-11T02:47:40.883Z,28.97
2018-04-11T02:50:08.961Z,27.90
2018-04-11T02:52:37.227Z,29.37
2018-04-11T02:55:05.403Z,29.17
2018-04-11T02:57:34.392Z,28.47
2018-04-11T03:00:02.465Z,30.70
2018-04-11T03:02:30.433Z,31.13
2018-04-11T03:04:58.407Z,28.27
2018-04-11T03:07:26.375Z,30.43
2018-04-11T03:09:55.658Z,30.17
2018-04-11T03:12:23.838Z,33.80
2018-04-11T03:14:52.019Z,31.27
2018-04-11T03:17:21.852Z,32.77
2018-04-11T03:19:50.929Z,30.70
2018-04-11T03:22:19.093Z,32.97
2018-04-11T03:24:47.472Z,30.87
2018-04-11T03:27:15.651Z,30.90
2018-04-11T03:29:44.022Z,29.97
2018-04-11T03:32:12.167Z,31.13
2018-04-11T03:34:40.366Z,31.00
2018-04-11T03:37:08.237Z,32.80
2018-04-11T03:39:37.536Z,32.77
2018-04-11T03:42:05.646Z,31.17
2018-04-11T03:44:33.579Z,30.93
2018-04-11T03:47:01.891Z,32.37
2018-04-11T03:49:30.023Z,33.37
2018-04-11T03:51:58.607Z,32.13
2018-04-11T03:54:26.885Z,33.53
2018-04-11T03:56:55.059Z,34.83
2018-04-11T03:59:23.945Z,35.13
2018-04-11T04:01:52.102Z,35.30
2018-04-11T04:04:20.191Z,36.93
2018-04-11T04:06:48.502Z,33.90
2018-04-11T04:09:17.356Z,36.37
2018-04-11T04:11:45.536Z,35.10
2018-04-11T04:14:26.200Z,33.47
2018-04-11T04:17:06.050Z,36.37
2018-04-11T04:22:39.047Z,34.90
2018-04-11T04:25:07.022Z,37.70
2018-04-11T04:27:35.296Z,34.80
2018-04-11T04:30:03.263Z,34.97
2018-04-11T04:32:32.226Z,35.90
2018-04-11T04:35:00.491Z,35.10
2018-04-11T04:37:28.800Z,36.00
2018-04-11T04:39:57.161Z,33.33
2018-04-11T04:42:25.575Z,33.90
2018-04-11T04:44:54.549Z,35.23
2018-04-11T04:47:23.575Z,34.40
2018-04-11T04:49:51.894Z,33.90
2018-04-11T04:52:19.988Z,34.47
2018-04-11T04:54:48.061Z,36.27
2018-04-11T04:57:16.134Z,35.67
2018-04-11T04:59:44.104Z,33.70
2018-04-11T05:02:13.403Z,34.40
2018-04-11T05:04:41.782Z,35.37
2018-04-11T05:07:09.931Z,33.50
2018-04-11T05:09:38.044Z,35.33
2018-04-11T05:12:07.288Z,33.17
2018-04-11T05:14:35.392Z,33.20
2018-04-11T05:17:03.718Z,35.60
2018-04-11T05:19:32.382Z,32.80
2018-04-11T05:22:01.651Z,34.20
2018-04-11T05:24:30.072Z,35.40
2018-04-11T05:26:59.360Z,35.23
2018-04-11T05:29:28.859Z,33.17
2018-04-11T05:31:59.088Z,33.70
2018-04-11T05:34:28.372Z,35.33
2018-04-11T05:36:57.548Z,32.93
2018-04-11T05:39:25.723Z,34.53
2018-04-11T05:41:54.817Z,36.47
2018-04-11T05:44:24.537Z,33.87
2018-04-11T05:46:55.978Z,34.50
2018-04-11T05:49:24.378Z,33.53
2018-04-11T05:51:54.877Z,34.33
2018-04-11T05:54:23.578Z,32.40
2018-04-11T05:56:52.102Z,33.10
2018-04-11T05:59:20.737Z,35.17
2018-04-11T06:01:49.197Z,33.23
2018-04-11T06:04:17.639Z,34.00
2018-04-11T06:06:46.734Z,35.80
2018-04-11T06:09:15.365Z,31.23
2018-04-11T06:11:43.824Z,31.23
2018-04-11T06:14:13.222Z,32.53
2018-04-11T06:16:41.773Z,33.10
2018-04-11T06:19:11.254Z,31.50
2018-04-11T06:21:39.847Z,31.93
2018-04-11T06:24:08.695Z,34.70
2018-04-11T06:26:37.301Z,32.90
2018-04-11T06:29:25.235Z,31.03
2018-04-11T06:32:00.742Z,33.83
2018-04-11T06:34:29.641Z,33.20
2018-04-11T06:37:02.962Z,33.80
2018-04-11T06:39:33.742Z,31.67
2018-04-11T06:42:03.670Z,31.97
2018-04-11T06:44:35.562Z,34.07
2018-04-11T06:52:45.999Z,33.27
2018-04-11T06:55:16.747Z,31.20
2018-04-11T06:57:47.327Z,34.57
2018-04-11T07:00:15.840Z,33.70
2018-04-11T07:02:45.691Z,33.80
2018-04-11T07:05:14.960Z,32.27
2018-04-11T07:07:43.619Z,32.10
2018-04-11T07:10:12.896Z,30.50
2018-04-11T07:12:41.296Z,30.97
2018-04-11T07:15:09.683Z,30.20
2018-04-11T07:17:39.804Z,28.83
2018-04-11T07:20:07.978Z,29.07
2018-04-11T07:22:37.148Z,26.50
2018-04-11T07:25:05.320Z,28.30
2018-04-11T07:27:33.714Z,26.03
2018-04-11T07:30:02.032Z,27.27
2018-04-11T07:32:31.516Z,25.73
2018-04-11T07:35:00.625Z,24.50
2018-04-11T07:37:29.506Z,26.20
2018-04-11T07:39:58.162Z,24.23
2018-04-11T07:42:26.377Z,24.27
2018-04-11T07:44:55.533Z,24.40
2018-04-11T07:47:23.825Z,24.90
2018-04-11T07:49:52.135Z,25.67
2018-04-11T07:52:20.776Z,25.30
2018-04-11T07:54:49.181Z,26.00
2018-04-11T07:57:18.458Z,26.90
2018-04-11T07:59:46.620Z,26.07
2018-04-11T08:02:15.202Z,24.17
2018-04-11T08:04:43.913Z,23.73
2018-04-11T08:07:13.355Z,24.60
2018-04-11T08:09:42.005Z,23.80
2018-04-11T08:12:10.969Z,22.93
2018-04-11T08:14:39.180Z,21.57
2018-04-11T08:17:08.272Z,30.37
2018-04-11T08:19:37.834Z,23.23
2018-04-11T08:22:06.015Z,22.03
2018-04-11T08:24:34.223Z,22.63
2018-04-11T08:27:03.323Z,19.37
2018-04-11T08:29:32.427Z,20.50
2018-04-11T08:32:00.558Z,19.60
2018-04-11T08:34:30.459Z,21.00
2018-04-11T08:36:58.781Z,20.40
2018-04-11T08:39:28.447Z,19.57
2018-04-11T08:41:57.652Z,19.90
2018-04-11T08:44:26.142Z,19.33
2018-04-11T08:46:55.150Z,16.80
2018-04-11T08:49:25.237Z,16.60
2018-04-11T08:51:53.481Z,16.80
2018-04-11T08:54:21.912Z,16.60
2018-04-11T08:56:51.366Z,18.20
2018-04-11T08:59:19.753Z,15.40
2018-04-11T09:01:47.877Z,15.93
2018-04-11T09:04:16.983Z,17.70
2018-04-11T09:06:45.936Z,16.90
2018-04-11T09:09:14.214Z,15.43
2018-04-11T09:11:43.625Z,16.80
2018-04-11T09:14:12.172Z,15.40
2018-04-11T09:16:40.705Z,15.67
2018-04-11T09:19:10.207Z,15.23
2018-04-11T09:21:39.318Z,13.67
2018-04-11T09:24:08.793Z,14.73
2018-04-11T09:26:37.255Z,15.17
2018-04-11T09:29:05.724Z,13.93
2018-04-11T09:31:33.836Z,13.10
2018-04-11T09:34:01.790Z,12.90
2018-04-11T09:36:29.654Z,12.07
2018-04-11T09:38:57.741Z,10.53
2018-04-11T09:41:25.983Z,11.70
2018-04-11T09:43:54.419Z,13.43
2018-04-11T09:46:23.391Z,12.70
2018-04-11T09:48:52.540Z,14.00
2018-04-11T09:51:20.735Z,12.73
2018-04-11T09:53:49.858Z,42.57
2018-04-11T09:56:19.117Z,12.90
2018-04-11T09:58:47.001Z,12.33
2018-04-11T10:01:18.930Z,11.90
2018-04-11T10:03:46.963Z,12.20
2018-04-11T10:06:16.727Z,10.90
2018-04-11T10:08:46.260Z,12.67
2018-04-11T10:11:14.434Z,10.43
2018-04-11T10:13:42.736Z,11.10
2018-04-11T10:16:11.820Z,10.33
2018-04-11T10:18:40.884Z,11.17
2018-04-11T10:21:09.060Z,12.17
2018-04-11T10:23:37.460Z,12.30
2018-04-11T10:26:06.506Z,12.30
2018-04-11T10:28:35.082Z,16.70
2018-04-11T10:31:03.612Z,13.50
2018-04-11T10:33:32.040Z,12.63
2018-04-11T10:35:59.940Z,12.83
2018-04-11T10:38:27.941Z,12.40
2018-04-11T10:40:58.531Z,12.80
2018-04-11T10:43:27.125Z,12.80
2018-04-11T10:45:55.523Z,13.37
2018-04-11T10:48:25.239Z,13.47
2018-04-11T10:50:54.940Z,14.53
2018-04-11T10:53:22.961Z,14.30
2018-04-11T10:55:51.394Z,12.67
2018-04-11T10:58:19.930Z,12.20
2018-04-11T11:00:48.365Z,12.70
2018-04-11T11:03:17.332Z,14.03
2018-04-11T11:05:45.356Z,14.10
2018-04-11T11:08:13.614Z,14.03
2018-04-11T11:10:43.088Z,16.47
2018-04-11T11:13:12.167Z,15.20
2018-04-11T11:15:40.428Z,15.87
2018-04-11T11:18:09.018Z,14.53
2018-04-11T11:20:37.753Z,14.73
2018-04-11T11:23:07.436Z,15.50
2018-04-11T11:25:36.833Z,15.00
2018-04-11T11:28:05.085Z,15.93
2018-04-11T11:30:33.100Z,14.40
2018-04-11T11:33:02.176Z,17.20
2018-04-11T11:35:30.481Z,17.70
2018-04-11T11:37:59.603Z,11.87
2018-04-11T11:40:28.250Z,11.50
2018-04-11T11:42:57.590Z,10.40
2018-04-11T11:45:25.802Z,11.03
2018-04-11T11:47:54.255Z,12.10
2018-04-11T11:50:22.737Z,10.90
2018-04-11T11:52:51.041Z,11.67
2018-04-11T11:55:19.396Z,10.83
2018-04-11T11:57:47.593Z,10.90
2018-04-11T12:00:15.774Z,12.63
2018-04-11T12:02:43.927Z,14.57
2018-04-11T12:05:12.111Z,11.67
2018-04-11T12:07:40.496Z,11.73
2018-04-11T12:10:08.676Z,12.20
2018-04-11T12:12:37.697Z,12.87
2018-04-11T12:15:06.200Z,11.40
2018-04-11T12:17:34.405Z,11.93
2018-04-11T12:20:02.678Z,11.83
2018-04-11T12:22:30.960Z,10.20
2018-04-11T12:24:59.222Z,11.73
2018-04-11T12:27:27.724Z,11.60
2018-04-11T12:29:55.997Z,11.50
2018-04-11T12:32:24.946Z,12.70
2018-04-11T12:34:53.111Z,11.37
2018-04-11T12:37:21.563Z,12.07
2018-04-11T12:39:51.026Z,12.30
2018-04-11T12:42:19.317Z,13.20
2018-04-11T12:44:47.814Z,13.27
2018-04-11T12:47:17.233Z,12.40
2018-04-11T12:49:46.475Z,12.57
2018-04-11T12:52:15.188Z,11.53
2018-04-11T12:54:43.678Z,12.83
2018-04-11T12:57:12.436Z,14.50
2018-04-11T12:59:41.295Z,12.80
2018-04-11T13:02:09.794Z,14.40
2018-04-11T13:04:39.210Z,14.07
2018-04-11T13:07:07.514Z,13.90
2018-04-11T13:09:36.119Z,14.37
2018-04-11T13:12:05.487Z,15.67
2018-04-11T13:14:33.670Z,13.27
2018-04-11T13:17:02.212Z,14.20
2018-04-11T13:19:31.021Z,13.73
2018-04-11T13:21:59.313Z,13.67
2018-04-11T13:24:27.284Z,14.07
2018-04-11T13:26:55.682Z,13.27
2018-04-11T13:29:25.459Z,13.13
2018-04-11T13:31:54.053Z,15.60
2018-04-11T13:34:22.352Z,13.90
2018-04-11T13:36:51.429Z,14.70
2018-04-11T13:39:19.804Z,14.37
2018-04-11T13:41:48.383Z,13.43
2018-04-11T13:44:17.079Z,13.30
2018-04-11T13:46:45.214Z,12.90
2018-04-11T13:49:13.340Z,12.80
2018-04-11T13:51:42.529Z,12.97
2018-04-11T13:54:10.797Z,13.07
2018-04-11T13:56:38.872Z,17.10
2018-04-11T13:59:06.842Z,10.90
2018-04-11T14:01:35.743Z,10.53
2018-04-11T14:04:05.595Z,10.50
2018-04-11T14:06:33.921Z,12.60
2018-04-11T14:09:02.676Z,9.67
2018-04-11T14:11:31.083Z,10.03
2018-04-11T14:13:59.231Z,8.93
2018-04-11T14:16:27.421Z,15.30
2018-04-11T14:18:55.800Z,8.60
2018-04-11T14:21:24.200Z,10.20
2018-04-11T14:23:53.813Z,8.70
2018-04-11T14:26:23.296Z,8.70
2018-04-11T14:28:51.763Z,9.27
2018-04-11T14:31:20.247Z,10.40
2018-04-11T14:33:48.399Z,10.20
2018-04-11T14:36:16.920Z,9.70
2018-04-11T14:38:46.856Z,10.00
2018-04-11T14:41:16.256Z,9.57
2018-04-11T14:43:45.455Z,8.83
2018-04-11T14:46:15.742Z,9.97
2018-04-11T14:48:44.643Z,9.57
2018-04-11T14:51:13.639Z,9.67
2018-04-11T14:53:42.826Z,10.47
2018-04-11T14:56:10.897Z,9.30
2018-04-11T14:58:39.035Z,10.43
2018-04-11T15:01:07.972Z,10.23
2018-04-11T15:03:36.058Z,10.30
2018-04-11T15:06:05.672Z,10.57
2018-04-11T15:08:34.837Z,10.00
2018-04-11T15:11:03.122Z,9.10
2018-04-11T15:13:31.328Z,10.93
2018-04-11T15:15:59.815Z,10.00
2018-04-11T15:18:28.415Z,9.57
2018-04-11T15:20:57.421Z,9.80
2018-04-11T15:23:25.718Z,10.43
2018-04-11T15:25:54.223Z,10.40
2018-04-11T15:28:23.164Z,9.93
2018-04-11T15:30:51.340Z,9.40
2018-04-11T15:33:19.328Z,9.70
2018-04-11T15:35:47.578Z,10.30
2018-04-11T15:38:16.113Z,9.37
2018-04-11T15:40:45.220Z,11.70
2018-04-11T15:43:14.396Z,10.10
2018-04-11T15:45:43.596Z,7.63
2018-04-11T15:48:11.853Z,9.33
2018-04-11T15:50:40.239Z,9.50
2018-04-11T15:53:08.417Z,9.87
2018-04-11T15:55:38.730Z,9.40
2018-04-11T15:58:06.597Z,9.87
2018-04-11T16:00:34.671Z,9.30
2018-04-11T16:03:03.041Z,10.30
2018-04-11T16:05:31.196Z,9.60
2018-04-11T16:07:59.290Z,9.13
2018-04-11T16:10:27.154Z,9.67
2018-04-11T16:12:55.228Z,9.17
2018-04-11T16:15:24.459Z,9.80
2018-04-11T16:17:52.708Z,9.70
2018-04-11T16:20:20.977Z,9.80
2018-04-11T16:22:49.183Z,10.50
2018-04-11T16:25:17.842Z,9.27
2018-04-11T16:27:45.808Z,8.33
2018-04-11T16:30:14.057Z,9.83
2018-04-11T16:32:42.158Z,8.63
2018-04-11T16:35:10.330Z,10.07
2018-04-11T16:37:38.692Z,10.20
2018-04-11T16:40:06.797Z,9.00
2018-04-11T16:42:35.667Z,9.90
2018-04-11T16:45:03.746Z,9.87
2018-04-11T16:47:31.710Z,9.23
2018-04-11T16:49:59.780Z,11.23
2018-04-11T16:52:27.952Z,9.50
2018-04-11T16:54:55.920Z,9.17
2018-04-11T16:57:24.006Z,10.30
2018-04-11T16:59:52.732Z,10.57
2018-04-11T17:02:22.159Z,10.33
2018-04-11T17:04:50.401Z,10.33
2018-04-11T17:07:18.632Z,9.97
2018-04-11T17:09:46.600Z,16.37
2018-04-11T17:12:14.500Z,9.60
2018-04-11T17:14:43.527Z,9.60
2018-04-11T17:17:11.522Z,10.40
2018-04-11T17:19:39.709Z,12.07
2018-04-11T17:22:19.963Z,13.00
2018-04-11T17:24:59.912Z,14.40
2018-04-11T17:30:44.174Z,16.90
2018-04-11T17:33:12.247Z,17.17
2018-04-11T17:35:40.727Z,17.57
2018-04-11T17:38:08.598Z,13.60
2018-04-11T17:40:36.770Z,15.90
2018-04-11T17:43:04.949Z,14.50
2018-04-11T17:45:33.180Z,15.20
2018-04-11T17:48:01.187Z,13.70
2018-04-11T17:50:29.457Z,14.67
2018-04-11T17:52:57.599Z,13.68
2018-04-11T17:55:25.605Z,13.47
2018-04-11T17:57:53.927Z,13.60
2018-04-11T18:00:22.144Z,14.33
2018-04-11T18:02:50.327Z,13.87
2018-04-11T18:05:18.297Z,14.97
2018-04-11T18:07:46.162Z,14.27
2018-04-11T18:10:14.245Z,14.03
2018-04-11T18:12:42.203Z,15.30
2018-04-11T18:15:10.257Z,14.50
2018-04-11T18:17:38.142Z,14.83
2018-04-11T18:20:06.217Z,12.47
2018-04-11T18:22:34.456Z,14.13
2018-04-11T18:25:02.353Z,14.13
2018-04-11T18:27:30.529Z,14.47
2018-04-11T18:29:59.566Z,14.67
2018-04-11T18:32:27.488Z,15.90
2018-04-11T18:34:55.564Z,15.33
2018-04-11T18:37:24.964Z,13.87
2018-04-11T18:39:53.137Z,15.27
2018-04-11T18:42:24.001Z,15.90
2018-04-11T18:44:52.150Z,16.80
2018-04-11T18:47:20.268Z,17.30
2018-04-11T18:49:49.108Z,18.10
2018-04-11T18:52:17.181Z,16.77
2018-04-11T18:54:45.670Z,15.70
2018-04-11T18:57:13.938Z,16.30
2018-04-11T18:59:42.077Z,18.33
2018-04-11T19:02:10.691Z,21.00
2018-04-11T19:04:38.991Z,23.97
2018-04-11T19:07:07.862Z,22.43
2018-04-11T19:09:35.920Z,20.20
2018-04-11T19:12:04.308Z,20.83
2018-04-11T19:14:32.482Z,20.87
2018-04-11T19:17:00.548Z,21.90
2018-04-11T19:19:28.944Z,21.70
2018-04-11T19:21:58.022Z,22.80
2018-04-11T19:24:25.989Z,22.20
2018-04-11T19:26:54.023Z,22.43
2018-04-11T19:29:22.349Z,23.07
2018-04-11T19:31:50.713Z,23.60
2018-04-11T19:34:20.535Z,24.50
2018-04-11T19:36:48.908Z,24.90
2018-04-11T19:39:17.375Z,23.43
2018-04-11T19:41:45.352Z,26.03
2018-04-11T19:44:13.432Z,25.53
2018-04-11T19:46:42.487Z,23.57
2018-04-11T19:49:10.702Z,24.70
2018-04-11T19:51:38.671Z,24.83
2018-04-11T19:54:06.847Z,24.53
2018-04-11T19:56:35.002Z,24.70
2018-04-11T19:59:03.394Z,24.40
2018-04-11T20:01:31.673Z,23.63
2018-04-11T20:03:59.725Z,24.70
2018-04-11T20:06:27.910Z,24.27
2018-04-11T20:08:57.303Z,24.43
2018-04-11T20:11:25.278Z,23.70
2018-04-11T20:13:53.519Z,22.50
2018-04-11T20:16:21.627Z,24.73
2018-04-11T20:18:49.902Z,23.17
2018-04-11T20:21:18.053Z,24.60
2018-04-11T20:23:46.291Z,22.20
2018-04-11T20:26:14.502Z,25.53
2018-04-11T20:28:42.593Z,22.80
2018-04-11T20:31:10.774Z,24.90
2018-04-11T20:33:39.062Z,26.50
2018-04-11T20:36:08.549Z,26.87
2018-04-11T20:38:36.727Z,26.30
2018-04-11T20:41:04.793Z,27.10
2018-04-11T20:43:32.733Z,26.17
2018-04-11T20:46:01.142Z,26.50
2018-04-11T20:48:29.537Z,25.60
2018-04-11T20:50:58.207Z,26.30
2018-04-11T20:53:26.276Z,25.93
2018-04-11T20:55:54.466Z,26.13
2018-04-11T20:58:23.423Z,25.00
2018-04-11T21:00:51.702Z,26.70
2018-04-11T21:03:20.608Z,26.40
2018-04-11T21:05:48.678Z,26.37
2018-04-11T21:08:16.964Z,27.80
2018-04-11T21:10:45.112Z,27.93
2018-04-11T21:13:13.306Z,28.53
2018-04-11T21:15:41.753Z,24.80
2018-04-11T21:18:09.724Z,24.70
2018-04-11T21:20:37.717Z,25.10
2018-04-11T21:23:06.008Z,25.60
2018-04-11T21:25:34.133Z,24.00
2018-04-11T21:28:02.456Z,25.40
2018-04-11T21:30:30.694Z,24.50
2018-04-11T21:32:58.699Z,25.67
2018-04-11T21:35:26.653Z,25.47
2018-04-11T21:37:54.839Z,24.60
2018-04-11T21:40:23.298Z,26.83
2018-04-11T21:42:52.188Z,25.30
2018-04-11T21:45:20.343Z,25.57
2018-04-11T21:47:48.763Z,26.90
2018-04-11T21:50:16.876Z,25.40
2018-04-11T21:52:45.219Z,27.70
2018-04-11T21:55:14.204Z,28.43
2018-04-11T21:57:42.476Z,27.30
2018-04-11T22:00:11.563Z,26.83
2018-04-11T22:02:39.633Z,25.60
2018-04-11T22:05:07.609Z,25.67
2018-04-11T22:07:35.873Z,23.30
2018-04-11T22:10:03.953Z,23.40
2018-04-11T22:12:32.843Z,21.47
2018-04-11T22:15:00.702Z,21.60
2018-04-11T22:17:29.083Z,22.00
2018-04-11T22:19:57.125Z,24.37
2018-04-11T22:22:25.633Z,22.67
2018-04-11T22:24:53.617Z,21.47
2018-04-11T22:27:22.806Z,23.23
2018-04-11T22:29:50.850Z,23.03
2018-04-11T22:32:19.033Z,22.27
2018-04-11T22:34:46.913Z,22.17
2018-04-11T22:37:14.993Z,20.50
2018-04-11T22:39:43.053Z,21.23
2018-04-11T22:42:11.638Z,19.73
2018-04-11T22:44:40.635Z,20.70
2018-04-11T22:47:08.879Z,22.40
2018-04-11T22:49:37.792Z,21.03
2018-04-11T22:52:05.868Z,20.80
2018-04-11T22:54:34.054Z,20.70
2018-04-11T22:57:02.313Z,21.20
2018-04-11T22:59:30.588Z,18.60
2018-04-11T23:01:58.969Z,20.87
2018-04-11T23:04:26.838Z,20.30
2018-04-11T23:06:56.451Z,20.67
2018-04-11T23:09:24.514Z,18.80
2018-04-11T23:11:52.583Z,18.90
2018-04-11T23:14:20.862Z,19.70
2018-04-11T23:16:48.829Z,18.90
2018-04-11T23:19:17.108Z,17.63
2018-04-11T23:21:45.368Z,18.57
2018-04-11T23:24:13.449Z,17.50
2018-04-11T23:26:41.418Z,17.00
2018-04-11T23:29:09.602Z,17.70
2018-04-11T23:31:37.769Z,17.13
2018-04-11T23:34:05.738Z,15.93
2018-04-11T23:36:33.703Z,16.63
2018-04-11T23:39:01.778Z,18.17
2018-04-11T23:41:30.093Z,17.30
2018-04-11T23:43:58.222Z,16.77
2018-04-11T23:46:26.372Z,15.93
2018-04-11T23:48:54.469Z,16.30
2018-04-11T23:51:22.642Z,16.27
2018-04-11T23:53:50.723Z,15.00
2018-04-11T23:56:18.672Z,15.30
2018-04-11T23:58:46.746Z,15.40
